AU-0028 weather

Moonambel Airfield
Victoria, Australia

Public forecast

Using degrees Celsius for public forecast. Weather courtesy of forecast.io.

METAR (pilot weather report)

Closest report is Avalon Airport, 85.3 nm (158.1 km) SE. Retrieved 2019/03/26 01:35 UTC (55 minutes ago):

YMAV 260135Z AUTO 24018G29KT 9999 // BKN057 19/06 Q1019 RF00.0/000.0

TAF (pilot weather forecast)

Forecast is more than 12 hours old.

Closest forecast is Avalon Airport, 85.3 nm (158.1 km) SE. Retrieved 2019/03/25 06:33 UTC (20 hours ago):

TAF YMAV 250510Z 2506/2606 28026G40KT 9999 -SHRA NSC FM250800 29017G30KT CAVOK FM251600 28014KT 9999 SCT045